WMKJ/JHB METAR and TAF weather

Enter ICAO airport designator
Station Type Date Time Source
WMKJ METAR 2021/09/24 00:00 UTC NOAA

WMKJ 240000Z 00000KT 7000 FEW010 25/24 Q1010


Station Type Date Time Source
WMKJ Decoded METAR 2021/09/24 00:00 UTC NOAA

Johore Bharu / Senai, Malaysia (WMKJ) 01-38N 103-40E 40M
Sep 23, 2021 - 08:00 PM EDT / 2021.09.24 0000 UTC
Wind: Calm:0
Visibility: 4 mile(s):0
Sky conditions: mostly clear
Temperature: 77 F (25 C)
Dew Point: 75 F (24 C)
Relative Humidity: 94%
Pressure (altimeter): 29.83 in. Hg (1010 hPa)
ob: WMKJ 240000Z 00000KT 7000 FEW010 25/24 Q1010
cycle: 0

Station Type Date Time Source
WMKJ TAF 2021/09/23 18:26 UTC NOAA

TAF WMKJ 231700Z 2318/2418 VRB02KT 9000 FEW022 PROB30
TEMPO 2405/2409 5000 TSRA FEW017CB SCT020

Example: see airport list